KPUW/PUW METAR and TAF weather

Enter ICAO airport designator
Station Type Date Time Source
KPUW METAR 2020/01/20 15:53 UTC NOAA

KPUW 201553Z AUTO 10012KT 10SM SCT120 03/M02 A3008 RMK AO2 SLP205 T00281022


Station Type Date Time Source
KPUW Decoded METAR 2020/01/20 15:53 UTC NOAA

PULLMAN/MOSCOW RGNL AIRPORT , WA, United States (KPUW) 46-45N 117-07W 773M
Jan 20, 2020 - 10:53 AM EST / 2020.01.20 1553 UTC
Wind: from the E (100 degrees) at 14 MPH (12 KT):0
Visibility: 10 mile(s):0
Sky conditions: partly cloudy
Temperature: 37.0 F (2.8 C)
Dew Point: 28.0 F (-2.2 C)
Relative Humidity: 69%
Pressure (altimeter): 30.08 in. Hg (1018 hPa)
ob: KPUW 201553Z AUTO 10012KT 10SM SCT120 03/M02 A3008 RMK AO2 SLP205 T00281022
cycle: 16

Station Type Date Time Source
KPUW TAF 2020/01/20 12:42 UTC NOAA

TAF KPUW 201139Z 2012/2112 10015KT P6SM OVC120
FM201700 12007KT P6SM SCT100 OVC150
FM210000 12007KT P6SM OVC100
FM210500 12008KT P6SM VCSH BKN070 OVC100

Example: see airport list